createdAt,value
2018-07-05T00:02:39.835Z,16.7
2018-07-05T00:08:09.439Z,16.7
2018-07-05T00:13:37.820Z,16.7
2018-07-05T00:19:07.013Z,16.7
2018-07-05T00:24:30.374Z,16.6
2018-07-05T00:29:59.150Z,16.6
2018-07-05T00:35:28.891Z,16.6
2018-07-05T00:41:02.274Z,16.5
2018-07-05T00:46:26.229Z,16.5
2018-07-05T00:51:56.185Z,16.5
2018-07-05T00:51:57.033Z,16.5
2018-07-05T00:57:30.624Z,16.5
2018-07-05T01:02:54.654Z,16.4
2018-07-05T01:08:28.983Z,16.4
2018-07-05T01:13:53.472Z,16.4
2018-07-05T01:19:23.387Z,16.4
2018-07-05T01:24:57.781Z,16.4
2018-07-05T01:30:22.748Z,16.4
2018-07-05T01:35:52.460Z,16.4
2018-07-05T01:41:20.836Z,16.4
2018-07-05T01:46:55.071Z,16.4
2018-07-05T01:52:18.544Z,16.3
2018-07-05T01:57:47.156Z,16.3
2018-07-05T02:03:21.851Z,16.3
2018-07-05T02:08:46.593Z,16.3
2018-07-05T02:14:14.958Z,16.3
2018-07-05T02:19:43.929Z,16.3
2018-07-05T02:25:13.694Z,16.3
2018-07-05T02:30:46.976Z,16.3
2018-07-05T02:36:11.224Z,16.3
2018-07-05T02:41:44.257Z,16.3
2018-07-05T02:47:08.968Z,16.3
2018-07-05T02:52:43.147Z,16.3
2018-07-05T02:58:06.264Z,16.3
2018-07-05T03:03:34.950Z,16.2
2018-07-05T03:09:04.898Z,16.2
2018-07-05T03:14:33.188Z,16.2
2018-07-05T03:20:07.292Z,16.2
2018-07-05T03:25:30.569Z,16.2
2018-07-05T03:31:00.503Z,16.2
2018-07-05T03:36:33.927Z,16.2
2018-07-05T03:42:02.769Z,16.1
2018-07-05T03:47:31.104Z,16.1
2018-07-05T03:52:54.793Z,16.1
2018-07-05T04:03:53.317Z,16
2018-07-05T04:09:27.877Z,16
2018-07-05T04:14:56.598Z,16
2018-07-05T04:20:19.984Z,15.9
2018-07-05T04:25:54.792Z,15.9
2018-07-05T04:31:24.443Z,15.8
2018-07-05T04:36:53.746Z,15.8
2018-07-05T04:42:18.697Z,15.8
2018-07-05T04:47:46.995Z,16
2018-07-05T04:53:17.046Z,16.1
2018-07-05T04:58:51.496Z,16.1
2018-07-05T05:04:15.204Z,16.2
2018-07-05T05:09:44.638Z,16.3
2018-07-05T05:15:13.615Z,16.2
2018-07-05T05:20:43.014Z,16.2
2018-07-05T05:26:11.594Z,16.2
2018-07-05T05:31:40.305Z,16.3
2018-07-05T05:31:41.136Z,16.3
2018-07-05T05:37:13.984Z,16.5
2018-07-05T05:42:38.599Z,16.6
2018-07-05T05:48:12.382Z,16.7
2018-07-05T05:53:41.052Z,16.7
2018-07-05T05:59:05.831Z,16.6
2018-07-05T06:04:35.372Z,16.5
2018-07-05T06:10:04.057Z,16.3
2018-07-05T06:15:33.945Z,16.2
2018-07-05T06:21:03.299Z,16.2
2018-07-05T06:26:32.377Z,16.3
2018-07-05T06:32:01.873Z,16.5
2018-07-05T06:37:30.401Z,16.6
2018-07-05T06:42:59.309Z,16.7
2018-07-05T06:48:27.971Z,16.6
2018-07-05T06:54:01.504Z,16.5
2018-07-05T06:59:31.106Z,16.5
2018-07-05T07:04:56.184Z,16.6
2018-07-05T07:10:24.485Z,16.6
2018-07-05T07:15:54.195Z,16.5
2018-07-05T07:21:24.119Z,16.5
2018-07-05T07:26:52.529Z,16.4
2018-07-05T07:32:21.438Z,16.3
2018-07-05T07:43:19.780Z,16.5
2018-07-05T07:48:48.261Z,16.7
2018-07-05T07:54:22.472Z,16.7
2018-07-05T07:59:50.797Z,16.6
2018-07-05T08:05:20.305Z,16.8
2018-07-05T08:10:50.426Z,17
2018-07-05T08:16:15.439Z,17.2
2018-07-05T08:21:49.542Z,17.1
2018-07-05T08:27:13.363Z,17
2018-07-05T08:32:47.371Z,16.9
2018-07-05T08:38:11.691Z,16.8
2018-07-05T08:43:40.467Z,16.9
2018-07-05T08:49:15.183Z,16.9
2018-07-05T08:54:38.841Z,16.9
2018-07-05T09:00:13.565Z,17
2018-07-05T09:05:37.702Z,17
2018-07-05T09:11:06.044Z,17
2018-07-05T09:16:34.724Z,17
2018-07-05T09:22:04.732Z,17.1
2018-07-05T09:27:34.229Z,17.2
2018-07-05T09:33:03.205Z,17.1
2018-07-05T09:38:32.213Z,17.1
2018-07-05T09:44:01.968Z,17.2
2018-07-05T09:49:35.212Z,17.4
2018-07-05T09:54:59.353Z,17.6
2018-07-05T10:00:27.717Z,17.6
2018-07-05T10:05:57.776Z,17.5
2018-07-05T10:11:27.842Z,17.6
2018-07-05T10:16:57.113Z,17.7
2018-07-05T10:22:25.968Z,17.9
2018-07-05T10:27:56.289Z,18
2018-07-05T10:33:24.547Z,17.9
2018-07-05T10:38:54.713Z,18
2018-07-05T10:44:24.306Z,18.2
2018-07-05T10:49:53.358Z,18.2
2018-07-05T10:55:22.331Z,18.1
2018-07-05T11:00:52.033Z,18
2018-07-05T11:06:20.889Z,18
2018-07-05T11:22:49.392Z,18.2
2018-07-05T11:28:19.006Z,18.1
2018-07-05T11:33:49.063Z,18
2018-07-05T11:44:48.605Z,18.1
2018-07-05T11:50:17.585Z,18.1
2018-07-05T11:55:47.188Z,18.2
2018-07-05T12:01:16.296Z,18.3
2018-07-05T12:06:45.248Z,18.4
2018-07-05T12:12:15.068Z,18.6
2018-07-05T12:17:44.753Z,18.7
2018-07-05T12:23:13.650Z,18.9
2018-07-05T12:28:43.894Z,18.8
2018-07-05T12:56:09.191Z,18.4
2018-07-05T13:01:37.735Z,18.4
2018-07-05T13:07:07.912Z,18.3
2018-07-05T13:12:41.474Z,18.2
2018-07-05T13:18:05.353Z,18.2
2018-07-05T13:23:35.426Z,18.1
2018-07-05T13:29:05.237Z,18
2018-07-05T13:34:34.849Z,17.9
2018-07-05T13:40:03.644Z,17.8
2018-07-05T13:45:32.869Z,17.7
2018-07-05T13:51:01.295Z,17.6
2018-07-05T13:56:30.099Z,17.7
2018-07-05T14:01:58.927Z,17.8
2018-07-05T14:07:28.893Z,17.8
2018-07-05T14:12:57.434Z,17.8
2018-07-05T14:18:26.348Z,17.8
2018-07-05T14:23:56.085Z,17.8
2018-07-05T14:29:25.120Z,17.7
2018-07-05T14:35:00.356Z,17.8
2018-07-05T14:40:29.807Z,18.1
2018-07-05T14:45:53.658Z,18.3
2018-07-05T14:51:23.527Z,18.5
2018-07-05T14:56:57.221Z,18.5
2018-07-05T15:02:21.273Z,18.3
2018-07-05T15:07:51.521Z,18.2
2018-07-05T15:13:20.055Z,18
2018-07-05T15:18:53.515Z,18
2018-07-05T15:24:17.670Z,17.9
2018-07-05T15:29:47.184Z,17.8
2018-07-05T15:35:16.179Z,17.7
2018-07-05T15:40:44.996Z,17.6
2018-07-05T15:46:20.051Z,17.6
2018-07-05T15:51:43.629Z,17.6
2018-07-05T15:57:12.202Z,17.5
2018-07-05T16:02:41.159Z,17.5
2018-07-05T16:08:09.627Z,17.5
2018-07-05T16:13:43.452Z,17.5
2018-07-05T16:19:07.474Z,17.5
2018-07-05T16:24:36.032Z,17.5
2018-07-05T16:30:05.014Z,17.4
2018-07-05T16:35:38.821Z,17.3
2018-07-05T16:41:07.271Z,17.2
2018-07-05T16:46:31.305Z,17.2
2018-07-05T16:46:32.111Z,17.2
2018-07-05T16:52:01.035Z,17.2
2018-07-05T16:57:35.871Z,17.2
2018-07-05T17:03:04.581Z,17.2
2018-07-05T17:08:28.070Z,17.2
2018-07-05T17:13:57.876Z,17.2
2018-07-05T17:19:32.670Z,17.3
2018-07-05T17:24:56.327Z,17.3
2018-07-05T17:30:26.126Z,17.3
2018-07-05T17:35:54.874Z,17.3
2018-07-05T17:41:24.621Z,17.3
2018-07-05T17:46:58.685Z,17.3
2018-07-05T17:52:23.312Z,17.3
2018-07-05T17:57:52.920Z,17.2
2018-07-05T18:03:26.918Z,17.1
2018-07-05T18:08:55.773Z,17
2018-07-05T18:14:19.505Z,16.9
2018-07-05T18:19:47.782Z,16.8
2018-07-05T18:25:16.527Z,16.7
2018-07-05T18:30:46.231Z,16.6
2018-07-05T18:36:15.153Z,16.6
2018-07-05T18:41:48.839Z,16.6
2018-07-05T18:47:12.353Z,16.6
2018-07-05T18:52:40.909Z,16.5
2018-07-05T18:58:09.603Z,16.5
2018-07-05T19:03:38.416Z,16.4
2018-07-05T19:09:06.910Z,16.4
2018-07-05T19:14:35.610Z,16.4
2018-07-05T19:20:04.377Z,16.3
2018-07-05T19:25:33.924Z,16.4
2018-07-05T19:31:08.656Z,16.3
2018-07-05T19:36:37.299Z,16.3
2018-07-05T19:42:01.152Z,16.3
2018-07-05T19:47:35.548Z,16.2
2018-07-05T19:53:05.862Z,16.2
2018-07-05T19:58:28.906Z,16.2
2018-07-05T20:03:58.490Z,16.2
2018-07-05T20:09:29.080Z,16.2
2018-07-05T20:14:58.089Z,16.2
2018-07-05T20:20:32.732Z,16.2
2018-07-05T20:25:57.102Z,16.1
2018-07-05T20:31:26.971Z,16.1
2018-07-05T20:37:01.668Z,16.1
2018-07-05T20:42:26.031Z,16.1
2018-07-05T20:47:54.656Z,16
2018-07-05T20:53:28.274Z,15.9
2018-07-05T20:58:52.876Z,15.9
2018-07-05T21:04:21.419Z,15.9
2018-07-05T21:09:55.025Z,15.9
2018-07-05T21:15:24.671Z,15.9
2018-07-05T21:20:49.320Z,15.8
2018-07-05T21:26:18.447Z,15.8
2018-07-05T21:31:47.027Z,15.8
2018-07-05T21:37:15.107Z,15.8
2018-07-05T21:42:44.938Z,15.8
2018-07-05T21:48:14.348Z,15.7
2018-07-05T21:53:48.180Z,15.7
2018-07-05T21:59:16.581Z,15.7
2018-07-05T22:04:40.481Z,15.7
2018-07-05T22:10:09.678Z,15.7
2018-07-05T22:15:44.351Z,15.7
2018-07-05T22:21:14.012Z,15.7
2018-07-05T22:26:38.447Z,15.7
2018-07-05T22:32:08.340Z,15.7
2018-07-05T22:37:36.618Z,15.7
2018-07-05T22:43:05.290Z,15.6
2018-07-05T22:48:39.962Z,15.6
2018-07-05T22:54:04.455Z,15.5
2018-07-05T22:59:39.026Z,15.4
2018-07-05T23:05:08.592Z,15.3
2018-07-05T23:10:32.124Z,15.3
2018-07-05T23:16:01.696Z,15.3
2018-07-05T23:21:35.512Z,15.3
2018-07-05T23:26:58.891Z,15.4
2018-07-05T23:32:28.424Z,15.4
2018-07-05T23:37:58.280Z,15.5
2018-07-05T23:43:31.892Z,15.4
2018-07-05T23:49:01.455Z,15.5
2018-07-05T23:54:25.775Z,15.5
2018-07-05T23:59:55.788Z,15.5
